Flight Track Log - Related Links

Times and Time Zones

All times are in EDT time to prevent confusion due to time zone crossing. See the N9003S flight status page for this flight to view local times or setup timezone preferences in your user account.

Time Position Orientation Groundspeed Altitude Reporting Facility
EDT Latitude Longitude Course Direction KTS MPH feet Rate Location/Type
Mon 05:06:12 PM 40.9833 -72.3667 294° West 151 174 3,000  Level New York TRACON
Mon 05:07:12 PM 41.0000 -72.4167 294° West 152 175 3,000 350 Level New York TRACON
Mon 05:08:12 PM 41.0333 -72.4500 323° Northwest 145 167 3,700 700 Climbing New York TRACON
Mon 05:09:12 PM 41.0500 -72.4833 304° West 133 153 4,400 900 Climbing New York TRACON
Mon 05:10:12 PM 41.0500 -72.5333 270° West 113 130 5,500 800 Climbing New York TRACON
Mon 05:11:12 PM 41.0667 -72.5833 294° West 132 152 6,000 250 Climbing New York TRACON
Mon 05:12:12 PM 41.0667 -72.6333 270° West 163 188 6,000  Level New York TRACON
Mon 05:13:18 PM 41.0833 -72.7000 288° West 168 193 6,000  Level New York TRACON
Mon 05:14:12 PM 41.0833 -72.7500 270° West 166 191 6,000  Level New York TRACON
Mon 05:15:18 PM 41.1000 -72.8167 288° West 164 189 6,000  Level New York TRACON
Mon 05:16:18 PM 41.1167 -72.8667 294° West 169 194 6,000  Level New York TRACON
Mon 05:17:18 PM 41.1167 -72.9333 270° West 166 191 6,000 -400 Level New York TRACON
Mon 05:18:18 PM 41.1333 -73.0000 288° West 176 203 5,200 -500 Descending New York TRACON
Mon 05:19:18 PM 41.1500 -73.0500 294° West 167 192 5,000 -100 Descending New York TRACON
Mon 05:20:18 PM 41.1500 -73.1167 270° West 160 184 5,000  Level New York TRACON
Mon 05:21:18 PM 41.1667 -73.1667 294° West 159 183 5,000  Level New York TRACON
Mon 05:22:18 PM 41.1667 -73.2167 270° West 160 184 5,000 -50 Level New York TRACON
Mon 05:23:18 PM 41.1667 -73.2833 270° West 157 181 4,900 -500 Descending New York TRACON
Mon 05:24:18 PM 41.1833 -73.3500 288° West 175 201 4,000 -737 Descending New York TRACON
Mon 05:25:12 PM 41.1833 -73.4000 270° West 165 190 3,500 -550 Descending New York TRACON
Mon 05:26:18 PM 41.1500 -73.4500 228° Southwest 156 180 2,900 -450 Descending New York TRACON
Mon 05:27:12 PM 41.1167 -73.4833 217° Southwest 150 173 2,600 -450 Descending New York TRACON
Mon 05:28:18 PM 41.0833 -73.5167 217° Southwest 160 184 2,000 -300 Descending New York TRACON
Mon 05:29:12 PM 41.0500 -73.5333 201° Southwest 149 171 2,000  Level New York TRACON
Mon 05:30:12 PM 41.0167 -73.5667 217° Southwest 145 167 2,000  Level New York TRACON
Mon 05:31:12 PM 40.9833 -73.6000 217° Southwest 146 168 2,000 -48 Level New York TRACON
Mon 05:32:18 PM 40.9833 -73.6333 270° West 132 152 1,900 -238 Descending New York TRACON
Mon 05:33:18 PM 41.0167 -73.6667 323° Northwest 110 127 1,500 -450 Descending New York TRACON
Mon 05:34:18 PM 41.0333 -73.6833 323° Northwest 104 120 1,000 -500 Descending New York TRACON
Mon 05:36:00 PM 41.0667 -73.7000 318° Northwest  Level FlightAware Approximate
Mon 05:43:00 PM 41.0669 -73.7076 318° Northwest  Level Estimated

Login

Don't have an account? Register now (free) for customized features, flight alerts, and more!